Time;durP1;ratioP1;P1;durP2;ratioP2;P2;SDS_P1;SDS_P2;PMS_P1;PMS_P2;Temp;Humidity;BMP_temperature;BMP_pressure;BME280_temperature;BME280_humidity;BME280_pressure;Samples;Min_cycle;Max_cycle;Signal;HPM_P1;HPM_P2
2022/02/11 00:01:21;;;;;;;25.27;11.45;;;;;;;;;;4854082;29;20037;-75
2022/02/11 00:08:49;;;;;;;22.52;10.65;;;;;;;;;;4858937;29;20065;-75
2022/02/11 00:11:19;;;;;;;17.27;6.55;;;;;;;;;;4846410;29;20034;-75
2022/02/11 00:13:45;;;;;;;17.30;5.95;;;;;;;;;;4852035;29;20129;-75
2022/02/11 00:16:11;;;;;;;11.43;4.78;;;;;;;;;;4858874;29;20116;-75
2022/02/11 00:18:37;;;;;;;13.25;5.00;;;;;;;;;;4855916;29;20155;-75
2022/02/11 00:21:03;;;;;;;12.90;5.13;;;;;;;;;;4840360;29;20117;-75
2022/02/11 00:23:31;;;;;;;11.77;5.03;;;;;;;;;;4854147;29;20044;-75
2022/02/11 00:26:02;;;;;;;20.60;9.95;;;;;;;;;;4840505;29;20449;-75
2022/02/11 00:33:45;;;;;;;14.07;6.03;;;;;;;;;;4851258;29;20048;-75
2022/02/11 00:36:15;;;;;;;12.10;5.00;;;;;;;;;;4842715;29;20487;-74
2022/02/11 01:02:17;;;;;;;12.15;5.18;;;;;;;;;;4858037;29;20117;-75
2022/02/11 01:04:44;;;;;;;11.50;5.18;;;;;;;;;;4858003;29;20054;-75
2022/02/11 01:07:10;;;;;;;14.18;5.25;;;;;;;;;;4854622;29;20121;-75
2022/02/11 01:09:39;;;;;;;16.40;7.30;;;;;;;;;;4848975;29;20045;-75
2022/02/11 01:12:06;;;;;;;23.17;11.88;;;;;;;;;;4855875;29;20102;-75
2022/02/11 01:14:35;;;;;;;13.40;6.07;;;;;;;;;;4840782;29;20776;-75
2022/02/11 01:25:22;;;;;;;9.80;4.10;;;;;;;;;;4858017;29;20085;-74
2022/02/11 01:33:24;;;;;;;9.40;4.10;;;;;;;;;;4841991;29;20484;-75
2022/02/11 01:36:03;;;;;;;9.20;3.47;;;;;;;;;;4838753;29;20042;-75
2022/02/11 01:46:34;;;;;;;8.77;3.50;;;;;;;;;;4857467;29;20124;-75
2022/02/11 01:57:02;;;;;;;14.48;4.40;;;;;;;;;;4844209;29;20182;-75
2022/02/11 02:26:21;;;;;;;10.90;3.70;;;;;;;;;;4844391;29;20102;-74
2022/02/11 02:58:18;;;;;;;12.27;4.97;;;;;;;;;;4860350;29;20075;-75
2022/02/11 03:52:59;;;;;;;8.80;4.07;;;;;;;;;;4858798;29;20207;-75
2022/02/11 04:55:16;;;;;;;19.58;8.18;;;;;;;;;;4853829;29;20044;-74
2022/02/11 05:00:27;;;;;;;26.00;11.98;;;;;;;;;;4847625;29;20565;-74
2022/02/11 05:02:57;;;;;;;23.33;13.70;;;;;;;;;;4857204;29;20061;-75
2022/02/11 05:05:23;;;;;;;18.63;10.65;;;;;;;;;;4842922;29;20464;-74
2022/02/11 05:07:49;;;;;;;17.90;10.13;;;;;;;;;;4845531;29;20388;-74
2022/02/11 05:10:15;;;;;;;22.67;11.40;;;;;;;;;;4857479;29;20038;-74
2022/02/11 05:12:42;;;;;;;23.45;13.45;;;;;;;;;;4847678;29;20124;-74
2022/02/11 05:15:09;;;;;;;17.85;11.10;;;;;;;;;;4850982;29;20091;-75
2022/02/11 05:17:39;;;;;;;17.20;11.80;;;;;;;;;;4854554;29;20093;-74
2022/02/11 05:20:06;;;;;;;22.17;11.30;;;;;;;;;;4856983;29;20048;-74
2022/02/11 05:22:32;;;;;;;30.55;21.20;;;;;;;;;;4857164;29;20089;-74
2022/02/11 05:24:58;;;;;;;34.08;16.50;;;;;;;;;;4851309;29;20550;-74
2022/02/11 05:27:24;;;;;;;50.15;31.35;;;;;;;;;;4848441;29;20104;-74
2022/02/11 05:29:50;;;;;;;44.83;39.92;;;;;;;;;;4839418;29;20112;-74
2022/02/11 05:32:16;;;;;;;52.28;45.20;;;;;;;;;;4845917;29;20037;-74
2022/02/11 05:34:42;;;;;;;37.20;29.13;;;;;;;;;;4849398;29;20369;-74
2022/02/11 05:37:08;;;;;;;29.42;24.88;;;;;;;;;;4845741;29;20052;-74
2022/02/11 05:39:34;;;;;;;30.23;22.58;;;;;;;;;;4857153;29;20042;-74
2022/02/11 05:42:00;;;;;;;26.40;16.52;;;;;;;;;;4847174;29;20108;-74
2022/02/11 05:44:26;;;;;;;22.00;12.98;;;;;;;;;;4855097;29;20041;-74
2022/02/11 05:46:52;;;;;;;23.13;12.70;;;;;;;;;;4853055;29;20034;-74
2022/02/11 05:49:18;;;;;;;20.05;10.05;;;;;;;;;;4847925;29;20041;-74
2022/02/11 05:51:44;;;;;;;21.00;13.18;;;;;;;;;;4848010;29;20553;-74
2022/02/11 05:54:10;;;;;;;26.45;12.90;;;;;;;;;;4851202;29;20111;-74
2022/02/11 05:56:36;;;;;;;19.52;11.43;;;;;;;;;;4853954;29;20114;-74
2022/02/11 05:59:03;;;;;;;35.65;13.02;;;;;;;;;;4847368;29;20081;-74
2022/02/11 06:01:29;;;;;;;27.77;12.85;;;;;;;;;;4853846;29;20037;-74
2022/02/11 06:03:55;;;;;;;40.70;20.80;;;;;;;;;;4848726;29;20038;-75
2022/02/11 06:06:21;;;;;;;23.50;14.27;;;;;;;;;;4849919;29;20065;-74
2022/02/11 06:08:47;;;;;;;26.05;13.25;;;;;;;;;;4846243;29;20038;-74
2022/02/11 06:11:13;;;;;;;22.45;12.88;;;;;;;;;;4851016;29;20057;-74
2022/02/11 06:13:39;;;;;;;27.08;12.45;;;;;;;;;;4856867;29;20041;-74
2022/02/11 06:16:05;;;;;;;19.55;11.75;;;;;;;;;;4843846;29;20495;-73
2022/02/11 06:18:31;;;;;;;22.95;12.10;;;;;;;;;;4849598;29;20060;-74
2022/02/11 06:20:57;;;;;;;25.55;12.90;;;;;;;;;;4847684;29;20045;-74
2022/02/11 06:23:23;;;;;;;22.90;14.75;;;;;;;;;;4843507;29;20052;-74
2022/02/11 06:25:49;;;;;;;31.75;19.80;;;;;;;;;;4852297;29;20985;-74
2022/02/11 06:28:16;;;;;;;33.65;19.88;;;;;;;;;;4851124;29;20037;-74
2022/02/11 06:30:45;;;;;;;47.20;25.95;;;;;;;;;;4845906;29;20036;-74
2022/02/11 06:33:11;;;;;;;45.15;23.95;;;;;;;;;;4847540;29;20072;-74
2022/02/11 06:35:41;;;;;;;50.65;27.75;;;;;;;;;;4848111;29;20034;-74
2022/02/11 06:38:07;;;;;;;45.05;24.27;;;;;;;;;;4848487;29;22467;-74
2022/02/11 06:40:33;;;;;;;44.38;22.40;;;;;;;;;;4849037;29;20042;-75
2022/02/11 06:43:00;;;;;;;51.22;26.08;;;;;;;;;;4843490;29;20041;-75
2022/02/11 06:45:26;;;;;;;38.25;19.50;;;;;;;;;;4844821;29;20748;-75
2022/02/11 06:47:53;;;;;;;45.22;24.13;;;;;;;;;;4851996;29;20560;-74
2022/02/11 06:50:19;;;;;;;40.20;25.90;;;;;;;;;;4849279;29;20042;-75
2022/02/11 06:52:45;;;;;;;47.75;29.83;;;;;;;;;;4847199;29;20037;-75
2022/02/11 06:55:11;;;;;;;46.00;23.70;;;;;;;;;;4850885;29;20066;-75
2022/02/11 06:57:38;;;;;;;48.95;24.55;;;;;;;;;;4848481;29;20113;-75
2022/02/11 07:00:04;;;;;;;37.13;20.38;;;;;;;;;;4855479;29;20037;-75
2022/02/11 07:02:30;;;;;;;33.78;18.73;;;;;;;;;;4846817;29;20038;-75
2022/02/11 07:04:57;;;;;;;28.20;16.60;;;;;;;;;;4844140;29;20042;-75
2022/02/11 07:07:23;;;;;;;26.58;15.70;;;;;;;;;;4847393;29;20098;-75
2022/02/11 07:09:52;;;;;;;27.23;14.13;;;;;;;;;;4851862;29;20469;-74
2022/02/11 07:12:18;;;;;;;26.95;15.23;;;;;;;;;;4856968;29;20056;-75
2022/02/11 07:14:44;;;;;;;32.00;15.38;;;;;;;;;;4857228;29;20145;-75
2022/02/11 07:17:11;;;;;;;35.22;20.60;;;;;;;;;;4853540;29;20209;-75
2022/02/11 07:19:37;;;;;;;29.33;15.27;;;;;;;;;;4849671;29;20042;-75
2022/02/11 07:22:03;;;;;;;27.05;15.43;;;;;;;;;;4845126;29;20034;-75
2022/02/11 07:24:30;;;;;;;28.52;15.15;;;;;;;;;;4845818;29;20038;-75
2022/02/11 07:26:56;;;;;;;35.40;16.88;;;;;;;;;;4852548;29;20037;-75
2022/02/11 07:29:22;;;;;;;34.50;17.05;;;;;;;;;;4852854;29;20037;-75
2022/02/11 07:31:48;;;;;;;29.70;16.65;;;;;;;;;;4848404;29;20041;-75
2022/02/11 07:34:14;;;;;;;30.17;15.80;;;;;;;;;;4856980;29;20784;-75
2022/02/11 07:36:40;;;;;;;32.45;18.52;;;;;;;;;;4853373;29;20112;-73
2022/02/11 07:39:06;;;;;;;24.48;14.45;;;;;;;;;;4852367;29;20171;-75
2022/02/11 07:41:33;;;;;;;24.90;14.02;;;;;;;;;;4850014;29;20453;-75
2022/02/11 07:43:59;;;;;;;23.10;13.43;;;;;;;;;;4853118;29;20045;-75
2022/02/11 07:46:25;;;;;;;33.30;17.23;;;;;;;;;;4850613;29;20030;-74
2022/02/11 07:48:51;;;;;;;20.42;10.10;;;;;;;;;;4853410;29;20113;-75
2022/02/11 07:51:17;;;;;;;12.90;6.75;;;;;;;;;;4846989;29;20732;-75
2022/02/11 07:53:45;;;;;;;10.90;5.93;;;;;;;;;;4856594;29;20056;-75
2022/02/11 07:56:11;;;;;;;10.65;4.20;;;;;;;;;;4848337;29;20477;-75
2022/02/11 07:58:38;;;;;;;9.25;4.03;;;;;;;;;;4845806;29;20036;-75
2022/02/11 08:01:04;;;;;;;9.63;3.17;;;;;;;;;;4855539;29;20217;-76
2022/02/11 08:03:30;;;;;;;7.93;3.40;;;;;;;;;;4857321;29;20141;-75
2022/02/11 08:05:56;;;;;;;9.07;3.42;;;;;;;;;;4857942;29;20066;-75
2022/02/11 08:08:26;;;;;;;10.88;4.05;;;;;;;;;;4855605;29;20429;-75
2022/02/11 08:10:53;;;;;;;7.40;3.15;;;;;;;;;;4850897;29;20396;-75
2022/02/11 08:13:20;;;;;;;10.88;3.75;;;;;;;;;;4854692;29;20385;-75
2022/02/11 08:15:46;;;;;;;11.90;6.25;;;;;;;;;;4856363;29;20449;-75
2022/02/11 08:18:12;;;;;;;21.15;11.20;;;;;;;;;;4851878;29;20101;-75
2022/02/11 08:20:38;;;;;;;19.70;10.52;;;;;;;;;;4848135;29;20121;-76
2022/02/11 08:23:04;;;;;;;16.88;9.15;;;;;;;;;;4856338;29;20038;-75
2022/02/11 08:25:33;;;;;;;13.18;6.70;;;;;;;;;;4854764;29;20050;-75
2022/02/11 08:28:00;;;;;;;10.88;5.55;;;;;;;;;;4840155;29;20038;-75
2022/02/11 08:30:26;;;;;;;12.73;6.20;;;;;;;;;;4846274;29;20034;-76
2022/02/11 08:32:52;;;;;;;13.52;6.28;;;;;;;;;;4844889;29;20085;-76
2022/02/11 08:35:18;;;;;;;10.82;5.70;;;;;;;;;;4851198;29;20037;-73
2022/02/11 08:37:44;;;;;;;12.98;7.63;;;;;;;;;;4858078;29;20058;-76
2022/02/11 08:40:10;;;;;;;15.80;8.15;;;;;;;;;;4853462;29;20112;-76
2022/02/11 08:42:36;;;;;;;14.15;6.90;;;;;;;;;;4846107;29;20117;-75
2022/02/11 08:45:03;;;;;;;14.38;5.38;;;;;;;;;;4847199;29;20166;-75
2022/02/11 08:47:29;;;;;;;7.63;2.58;;;;;;;;;;4848875;29;20037;-76
2022/02/11 08:49:55;;;;;;;7.18;2.53;;;;;;;;;;4851509;29;20077;-76
2022/02/11 08:52:25;;;;;;;8.15;2.78;;;;;;;;;;4851079;29;20494;-76
2022/02/11 08:54:52;;;;;;;6.22;2.45;;;;;;;;;;4856592;29;20148;-76
2022/02/11 08:57:18;;;;;;;6.78;2.97;;;;;;;;;;4841088;29;20041;-76
2022/02/11 08:59:44;;;;;;;11.95;8.05;;;;;;;;;;4847375;29;20149;-76
2022/02/11 09:02:11;;;;;;;8.70;3.42;;;;;;;;;;4853839;29;20482;-75
2022/02/11 09:04:39;;;;;;;12.02;3.75;;;;;;;;;;4852039;29;20057;-76
2022/02/11 09:07:06;;;;;;;8.50;4.78;;;;;;;;;;4856021;29;20030;-76
2022/02/11 09:09:32;;;;;;;7.00;2.90;;;;;;;;;;4840400;29;20117;-75
2022/02/11 09:11:58;;;;;;;8.40;4.03;;;;;;;;;;4852860;29;20540;-75
2022/02/11 09:14:24;;;;;;;6.40;3.92;;;;;;;;;;4849072;29;20365;-75
2022/02/11 09:16:50;;;;;;;10.73;6.10;;;;;;;;;;4850069;29;20052;-76
2022/02/11 09:19:16;;;;;;;12.70;5.38;;;;;;;;;;4852199;29;20042;-75
2022/02/11 09:21:42;;;;;;;9.27;3.75;;;;;;;;;;4843534;29;20092;-76
2022/02/11 09:24:08;;;;;;;9.77;4.85;;;;;;;;;;4850659;29;20484;-75
2022/02/11 09:26:34;;;;;;;7.13;3.40;;;;;;;;;;4843781;29;20082;-76
2022/02/11 09:29:01;;;;;;;9.30;2.28;;;;;;;;;;4856356;29;20349;-76
2022/02/11 09:31:28;;;;;;;11.57;3.55;;;;;;;;;;4853650;29;20091;-76
2022/02/11 09:33:55;;;;;;;5.45;1.85;;;;;;;;;;4848288;29;20404;-75
2022/02/11 09:36:22;;;;;;;67.72;33.75;;;;;;;;;;4847719;29;20034;-76
2022/02/11 09:38:48;;;;;;;11.07;5.03;;;;;;;;;;4856861;29;20037;-75
2022/02/11 09:41:15;;;;;;;9.38;2.75;;;;;;;;;;4857114;29;20405;-75
2022/02/11 09:43:41;;;;;;;5.40;3.00;;;;;;;;;;4857009;29;20045;-76
2022/02/11 09:46:08;;;;;;;9.73;3.47;;;;;;;;;;4855204;29;20119;-76
2022/02/11 09:48:34;;;;;;;9.27;2.40;;;;;;;;;;4834520;29;20757;-76
2022/02/11 09:51:00;;;;;;;6.93;2.08;;;;;;;;;;4857440;29;20821;-76
2022/02/11 09:53:30;;;;;;;5.13;1.98;;;;;;;;;;4848869;29;20045;-76
2022/02/11 09:55:56;;;;;;;10.68;3.10;;;;;;;;;;4849742;29;20049;-76
2022/02/11 09:58:23;;;;;;;29.67;18.13;;;;;;;;;;4846000;29;20866;-76
2022/02/11 10:00:50;;;;;;;12.77;5.78;;;;;;;;;;4857111;29;20769;-76
2022/02/11 10:03:26;;;;;;;7.38;2.22;;;;;;;;;;4850053;29;20034;-76
2022/02/11 10:06:00;;;;;;;5.35;1.60;;;;;;;;;;4846729;29;20511;-76
2022/02/11 10:08:26;;;;;;;7.68;2.00;;;;;;;;;;4840749;29;20749;-76
2022/02/11 10:10:54;;;;;;;7.38;2.55;;;;;;;;;;4844773;29;20073;-76
2022/02/11 10:13:25;;;;;;;7.40;2.88;;;;;;;;;;4845185;29;20034;-76
2022/02/11 10:15:54;;;;;;;5.60;1.30;;;;;;;;;;4843993;29;20785;-76
2022/02/11 10:18:24;;;;;;;3.80;0.88;;;;;;;;;;4846896;29;20056;-76
2022/02/11 10:20:53;;;;;;;3.47;0.98;;;;;;;;;;4849074;29;20445;-76
2022/02/11 10:23:26;;;;;;;3.92;1.17;;;;;;;;;;4855380;29;21749;-76
2022/02/11 10:25:58;;;;;;;4.68;1.10;;;;;;;;;;4853070;29;20065;-76
2022/02/11 10:28:35;;;;;;;5.65;1.02;;;;;;;;;;4848956;29;20042;-76
2022/02/11 10:31:08;;;;;;;4.28;1.10;;;;;;;;;;4847316;29;20736;-75
2022/02/11 10:33:51;;;;;;;4.88;1.60;;;;;;;;;;4847836;29;20037;-76
2022/02/11 10:36:38;;;;;;;2.38;0.80;;;;;;;;;;4848826;29;20061;-76
2022/02/11 10:39:04;;;;;;;2.65;0.80;;;;;;;;;;4846942;29;20041;-76
2022/02/11 10:41:32;;;;;;;2.63;1.00;;;;;;;;;;4846436;29;20090;-76
2022/02/11 10:43:59;;;;;;;3.03;1.08;;;;;;;;;;4847614;29;20053;-76
2022/02/11 10:46:25;;;;;;;3.95;1.30;;;;;;;;;;4850930;29;20033;-76
2022/02/11 10:48:51;;;;;;;2.67;0.70;;;;;;;;;;4849690;29;20038;-76
2022/02/11 10:51:22;;;;;;;2.58;0.50;;;;;;;;;;4851001;29;20036;-76
2022/02/11 10:53:48;;;;;;;3.85;0.88;;;;;;;;;;4853746;29;20042;-75
2022/02/11 10:56:15;;;;;;;3.40;0.60;;;;;;;;;;4850926;29;20790;-76
2022/02/11 10:58:42;;;;;;;0.93;0.38;;;;;;;;;;4855520;29;20041;-76
2022/02/11 11:01:08;;;;;;;2.17;0.45;;;;;;;;;;4855819;29;20060;-76
2022/02/11 11:03:34;;;;;;;2.65;0.40;;;;;;;;;;4851557;29;20480;-77
2022/02/11 11:06:10;;;;;;;2.10;0.50;;;;;;;;;;4857286;29;20117;-76
2022/02/11 11:08:38;;;;;;;3.97;0.50;;;;;;;;;;4859678;29;20480;-76
2022/02/11 11:11:07;;;;;;;2.95;0.77;;;;;;;;;;4852810;29;20711;-75
2022/02/11 11:13:34;;;;;;;2.88;0.90;;;;;;;;;;4852109;29;20049;-76
2022/02/11 11:16:01;;;;;;;2.85;0.70;;;;;;;;;;4854218;29;20089;-76
2022/02/11 11:18:30;;;;;;;2.70;0.40;;;;;;;;;;4844420;29;20077;-76
2022/02/11 11:20:57;;;;;;;3.15;0.40;;;;;;;;;;4845558;29;20042;-76
2022/02/11 11:23:27;;;;;;;3.25;0.80;;;;;;;;;;4854843;29;20042;-76
2022/02/11 11:25:53;;;;;;;2.10;0.50;;;;;;;;;;4844903;29;20038;-76
2022/02/11 11:28:58;;;;;;;2.17;0.70;;;;;;;;;;4855776;29;20030;-75
2022/02/11 11:31:24;;;;;;;1.13;0.50;;;;;;;;;;4801641;29;20047;-76
2022/02/11 11:33:50;;;;;;;2.55;0.70;;;;;;;;;;4792289;29;20038;-76
2022/02/11 11:36:20;;;;;;;2.65;0.75;;;;;;;;;;4828808;29;20080;-76
2022/02/11 11:38:47;;;;;;;3.28;0.70;;;;;;;;;;4849691;29;20043;-73
2022/02/11 11:41:27;;;;;;;2.03;0.70;;;;;;;;;;4846494;29;20474;-75
2022/02/11 11:43:54;;;;;;;1.83;0.60;;;;;;;;;;4852362;29;20141;-74
2022/02/11 11:46:20;;;;;;;2.65;0.90;;;;;;;;;;4851641;29;20508;-76
2022/02/11 11:48:59;;;;;;;1.95;0.65;;;;;;;;;;4855636;29;20495;-76
2022/02/11 11:51:26;;;;;;;1.65;0.60;;;;;;;;;;4854065;29;20063;-76
2022/02/11 11:54:11;;;;;;;2.35;0.70;;;;;;;;;;4857802;29;20049;-76
2022/02/11 11:56:38;;;;;;;3.17;1.00;;;;;;;;;;4849320;29;20052;-76
2022/02/11 11:59:17;;;;;;;1.67;0.50;;;;;;;;;;4853064;29;20037;-76
2022/02/11 12:01:57;;;;;;;2.65;0.70;;;;;;;;;;4852069;29;20037;-76
2022/02/11 12:04:25;;;;;;;2.63;0.77;;;;;;;;;;4856670;29;20069;-76
2022/02/11 12:06:52;;;;;;;1.33;0.50;;;;;;;;;;4843870;29;20070;-76
2022/02/11 12:09:18;;;;;;;2.55;0.70;;;;;;;;;;4851633;29;20044;-76
2022/02/11 12:11:44;;;;;;;4.45;0.60;;;;;;;;;;4857464;29;20061;-76
2022/02/11 12:14:10;;;;;;;2.35;0.80;;;;;;;;;;4855439;29;20085;-76
2022/02/11 12:16:37;;;;;;;6.15;1.10;;;;;;;;;;4842826;29;20129;-76
2022/02/11 12:19:03;;;;;;;2.50;0.73;;;;;;;;;;4849048;29;20249;-76
2022/02/11 12:21:29;;;;;;;3.50;1.10;;;;;;;;;;4850933;29;20400;-76
2022/02/11 12:29:26;;;;;;;2.50;0.80;;;;;;;;;;4843688;29;20089;-76
2022/02/11 12:31:55;;;;;;;2.22;0.70;;;;;;;;;;4858780;29;20461;-76
2022/02/11 12:34:21;;;;;;;3.55;0.68;;;;;;;;;;4853060;29;20040;-76
2022/02/11 12:36:48;;;;;;;3.92;0.68;;;;;;;;;;4858438;29;20054;-76
2022/02/11 12:39:21;;;;;;;4.53;0.60;;;;;;;;;;4857920;29;20117;-76
2022/02/11 12:41:51;;;;;;;2.58;0.80;;;;;;;;;;4848038;29;20086;-76
2022/02/11 12:44:30;;;;;;;2.92;0.60;;;;;;;;;;4844673;29;20725;-76
2022/02/11 12:46:56;;;;;;;2.95;0.40;;;;;;;;;;4850151;29;20738;-76
2022/02/11 12:49:23;;;;;;;2.17;0.68;;;;;;;;;;4854821;29;20124;-76
2022/02/11 12:51:50;;;;;;;2.42;0.60;;;;;;;;;;4847510;29;20089;-76
2022/02/11 12:54:16;;;;;;;1.45;0.40;;;;;;;;;;4857601;29;20829;-76
2022/02/11 12:56:42;;;;;;;1.75;0.50;;;;;;;;;;4846110;29;20408;-76
2022/02/11 12:59:08;;;;;;;1.85;0.40;;;;;;;;;;4851403;29;20041;-76
2022/02/11 13:01:34;;;;;;;1.08;0.40;;;;;;;;;;4848238;29;20042;-76
2022/02/11 13:04:00;;;;;;;1.13;0.30;;;;;;;;;;4847716;29;20147;-76
2022/02/11 13:06:27;;;;;;;2.85;0.50;;;;;;;;;;4848974;29;20032;-75
2022/02/11 13:09:03;;;;;;;4.10;0.80;;;;;;;;;;4853755;29;20109;-76
2022/02/11 13:11:30;;;;;;;1.50;0.38;;;;;;;;;;4847186;29;20033;-76
2022/02/11 13:14:04;;;;;;;2.25;0.50;;;;;;;;;;4852615;29;20038;-76
2022/02/11 13:16:30;;;;;;;2.13;0.82;;;;;;;;;;4849538;29;20034;-76
2022/02/11 13:18:57;;;;;;;3.60;0.50;;;;;;;;;;4840048;29;20026;-76
2022/02/11 13:21:24;;;;;;;5.13;0.65;;;;;;;;;;4845958;29;20033;-76
2022/02/11 13:23:52;;;;;;;5.72;0.50;;;;;;;;;;4857679;29;20554;-76
2022/02/11 13:26:24;;;;;;;2.58;0.45;;;;;;;;;;4852776;29;20797;-77
2022/02/11 13:28:53;;;;;;;5.82;0.63;;;;;;;;;;4849585;29;20036;-76
2022/02/11 13:31:19;;;;;;;4.78;0.60;;;;;;;;;;4850329;29;20720;-76
2022/02/11 13:33:49;;;;;;;2.70;0.60;;;;;;;;;;4849119;29;20067;-76
2022/02/11 13:36:25;;;;;;;5.30;0.70;;;;;;;;;;4855837;29;20068;-76
2022/02/11 13:38:51;;;;;;;1.75;0.57;;;;;;;;;;4853961;29;20495;-76
2022/02/11 13:41:25;;;;;;;3.50;0.60;;;;;;;;;;4856725;29;20408;-76
2022/02/11 13:43:52;;;;;;;2.28;0.50;;;;;;;;;;4851979;29;20042;-76
2022/02/11 13:46:24;;;;;;;9.20;0.70;;;;;;;;;;4854308;29;20037;-76
2022/02/11 13:48:51;;;;;;;;;;;;;;;;;;4850536;29;20037;-76
2022/02/11 13:51:17;;;;;;;2.83;0.60;;;;;;;;;;4842818;29;20023;-76
2022/02/11 13:53:44;;;;;;;2.97;0.60;;;;;;;;;;4847806;29;20033;-76
2022/02/11 13:56:14;;;;;;;1.83;0.57;;;;;;;;;;4846776;29;20057;-76
2022/02/11 13:59:00;;;;;;;2.85;0.60;;;;;;;;;;4849895;29;20121;-76
2022/02/11 14:01:30;;;;;;;4.80;0.63;;;;;;;;;;4851784;29;20046;-76
2022/02/11 14:04:01;;;;;;;1.70;0.50;;;;;;;;;;4845289;29;20041;-76
2022/02/11 14:06:28;;;;;;;2.25;0.60;;;;;;;;;;4844731;29;20044;-76
2022/02/11 14:08:55;;;;;;;1.95;0.77;;;;;;;;;;4850922;29;20034;-76
2022/02/11 14:11:21;;;;;;;2.15;0.70;;;;;;;;;;4846920;29;20034;-76
2022/02/11 14:13:48;;;;;;;2.35;0.95;;;;;;;;;;4837558;29;20034;-76
2022/02/11 14:16:15;;;;;;;2.63;1.00;;;;;;;;;;4853808;29;20052;-77
2022/02/11 14:18:42;;;;;;;5.95;0.80;;;;;;;;;;4843513;29;20105;-76
2022/02/11 14:21:10;;;;;;;2.20;0.90;;;;;;;;;;4849135;29;20389;-75
2022/02/11 14:23:36;;;;;;;3.92;0.80;;;;;;;;;;4850306;29;20697;-76
2022/02/11 14:26:02;;;;;;;3.58;0.93;;;;;;;;;;4856461;29;20041;-76
2022/02/11 14:28:30;;;;;;;3.75;0.68;;;;;;;;;;4849307;29;20146;-76
2022/02/11 14:30:56;;;;;;;2.90;0.60;;;;;;;;;;4849407;29;20495;-76
2022/02/11 14:33:22;;;;;;;1.95;0.50;;;;;;;;;;4847028;29;20042;-76
2022/02/11 14:35:48;;;;;;;5.55;1.63;;;;;;;;;;4846387;29;20037;-76
2022/02/11 14:38:14;;;;;;;5.63;2.05;;;;;;;;;;4841549;29;20045;-76
2022/02/11 14:41:45;;;;;;;4.88;0.80;;;;;;;;;;4848472;29;20492;-76
2022/02/11 14:43:26;;;;;;;2.45;0.60;;;;;;;;;;4855094;29;20050;-76
2022/02/11 14:45:54;;;;;;;5.95;0.70;;;;;;;;;;4849740;29;20122;-76
2022/02/11 14:48:20;;;;;;;3.92;0.95;;;;;;;;;;4838194;29;20033;-76
2022/02/11 14:50:46;;;;;;;1.38;0.60;;;;;;;;;;4854916;29;20041;-76
2022/02/11 14:53:12;;;;;;;1.15;0.40;;;;;;;;;;4854083;29;20045;-76
2022/02/11 14:55:38;;;;;;;1.00;0.50;;;;;;;;;;4856236;29;20171;-76
2022/02/11 14:58:04;;;;;;;2.70;0.40;;;;;;;;;;4854505;29;20547;-76
2022/02/11 15:00:30;;;;;;;0.90;0.40;;;;;;;;;;4856352;29;20041;-76
2022/02/11 15:02:59;;;;;;;2.15;0.40;;;;;;;;;;4853189;29;20049;-76
2022/02/11 15:05:25;;;;;;;1.63;0.50;;;;;;;;;;4847351;29;20177;-76
2022/02/11 15:07:51;;;;;;;1.77;0.60;;;;;;;;;;4852512;29;20646;-76
2022/02/11 15:10:19;;;;;;;6.13;0.80;;;;;;;;;;4853606;29;20113;-76
2022/02/11 15:12:45;;;;;;;1.08;0.50;;;;;;;;;;4852995;29;20041;-76
2022/02/11 15:15:11;;;;;;;1.65;0.60;;;;;;;;;;4840161;29;20122;-76
2022/02/11 15:17:37;;;;;;;3.50;0.60;;;;;;;;;;4854636;29;20124;-76
2022/02/11 15:20:04;;;;;;;2.72;0.40;;;;;;;;;;4847021;29;20134;-76
2022/02/11 15:22:30;;;;;;;1.67;0.55;;;;;;;;;;4850745;29;20038;-76
2022/02/11 15:24:57;;;;;;;3.58;0.60;;;;;;;;;;4852040;29;20085;-76
2022/02/11 15:27:23;;;;;;;2.42;0.50;;;;;;;;;;4852225;29;20030;-76
2022/02/11 15:29:49;;;;;;;2.60;0.50;;;;;;;;;;4855990;29;20050;-76
2022/02/11 15:32:16;;;;;;;2.53;0.75;;;;;;;;;;4857095;29;20030;-76
2022/02/11 15:34:44;;;;;;;2.17;0.40;;;;;;;;;;4851049;29;20626;-76
2022/02/11 15:37:10;;;;;;;2.08;0.40;;;;;;;;;;4852680;29;20048;-76
2022/02/11 15:39:37;;;;;;;2.55;0.68;;;;;;;;;;4848069;29;20044;-76
2022/02/11 15:42:03;;;;;;;4.38;0.75;;;;;;;;;;4847711;29;20038;-76
2022/02/11 15:44:29;;;;;;;4.65;1.60;;;;;;;;;;4858395;29;20117;-76
2022/02/11 15:46:55;;;;;;;4.97;2.22;;;;;;;;;;4857061;29;20448;-76
2022/02/11 15:49:22;;;;;;;6.53;2.50;;;;;;;;;;4855756;29;20546;-76
2022/02/11 15:51:48;;;;;;;5.10;1.50;;;;;;;;;;4857657;29;20040;-76
2022/02/11 15:54:14;;;;;;;9.07;3.35;;;;;;;;;;4851702;29;20049;-76
2022/02/11 15:56:40;;;;;;;7.90;3.65;;;;;;;;;;4858954;29;20468;-76
2022/02/11 15:59:06;;;;;;;7.82;3.63;;;;;;;;;;4853125;29;20042;-76
2022/02/11 16:01:32;;;;;;;11.35;6.45;;;;;;;;;;4855955;29;20033;-76
2022/02/11 16:04:00;;;;;;;13.65;8.07;;;;;;;;;;4852825;29;20042;-76
2022/02/11 16:06:26;;;;;;;9.38;5.13;;;;;;;;;;4844863;29;20117;-76
2022/02/11 16:08:52;;;;;;;9.07;3.50;;;;;;;;;;4847442;29;20057;-76
2022/02/11 16:11:18;;;;;;;7.82;2.60;;;;;;;;;;4855992;29;20468;-76
2022/02/11 16:13:44;;;;;;;6.25;2.90;;;;;;;;;;4858339;29;20120;-76
2022/02/11 16:16:11;;;;;;;8.40;3.08;;;;;;;;;;4850814;29;20121;-76
2022/02/11 16:18:37;;;;;;;9.95;5.03;;;;;;;;;;4842237;29;20702;-76
2022/02/11 16:21:03;;;;;;;13.85;6.30;;;;;;;;;;4846376;29;20041;-76
2022/02/11 16:23:30;;;;;;;12.90;6.20;;;;;;;;;;4854005;29;20048;-76
2022/02/11 16:25:56;;;;;;;45.22;32.15;;;;;;;;;;4858259;29;20753;-76
2022/02/11 16:28:22;;;;;;;32.92;20.98;;;;;;;;;;4848810;29;20049;-76
2022/02/11 16:30:48;;;;;;;22.60;12.10;;;;;;;;;;4839943;29;20030;-76
2022/02/11 16:33:15;;;;;;;9.68;3.78;;;;;;;;;;4847396;29;20041;-76
2022/02/11 16:35:42;;;;;;;8.73;3.83;;;;;;;;;;4849485;29;20034;-76
2022/02/11 16:38:10;;;;;;;3.85;1.55;;;;;;;;;;4841508;29;20034;-76
2022/02/11 16:40:36;;;;;;;5.63;1.83;;;;;;;;;;4855590;29;20042;-76
2022/02/11 16:43:02;;;;;;;2.83;1.10;;;;;;;;;;4856164;29;20076;-76
2022/02/11 16:45:33;;;;;;;3.13;1.02;;;;;;;;;;4852538;29;20790;-76
2022/02/11 16:47:59;;;;;;;2.58;1.05;;;;;;;;;;4840679;29;20038;-76
2022/02/11 16:50:25;;;;;;;5.25;1.20;;;;;;;;;;4844922;29;20468;-76
2022/02/11 16:52:51;;;;;;;4.75;1.35;;;;;;;;;;4858115;29;20045;-76
2022/02/11 16:55:17;;;;;;;8.93;2.42;;;;;;;;;;4853389;29;20046;-76
2022/02/11 16:57:43;;;;;;;8.63;3.65;;;;;;;;;;4850907;29;20030;-76
2022/02/11 17:00:11;;;;;;;8.25;4.20;;;;;;;;;;4846236;29;20053;-76
2022/02/11 17:02:38;;;;;;;10.85;4.45;;;;;;;;;;4848972;29;20065;-76
2022/02/11 17:05:04;;;;;;;8.57;4.30;;;;;;;;;;4855325;29;20041;-75
2022/02/11 17:07:30;;;;;;;8.77;4.30;;;;;;;;;;4856306;29;20029;-76
2022/02/11 17:09:56;;;;;;;9.63;4.20;;;;;;;;;;4846802;29;20889;-76
2022/02/11 17:12:24;;;;;;;16.77;8.85;;;;;;;;;;4850514;29;20037;-76
2022/02/11 17:14:51;;;;;;;17.38;11.73;;;;;;;;;;4851838;29;20049;-75
2022/02/11 17:17:17;;;;;;;17.00;11.40;;;;;;;;;;4851069;29;20409;-76
2022/02/11 17:19:43;;;;;;;21.05;11.00;;;;;;;;;;4847250;29;20068;-76
2022/02/11 17:22:09;;;;;;;21.20;10.98;;;;;;;;;;4848137;29;20038;-76
2022/02/11 17:24:35;;;;;;;13.65;6.90;;;;;;;;;;4852220;29;20049;-75
2022/02/11 17:27:01;;;;;;;11.32;6.15;;;;;;;;;;4848502;29;20086;-75
2022/02/11 17:29:27;;;;;;;10.52;5.60;;;;;;;;;;4850010;29;20037;-76
2022/02/11 17:31:54;;;;;;;9.40;5.97;;;;;;;;;;4835731;29;20476;-75
2022/02/11 17:34:20;;;;;;;18.35;11.02;;;;;;;;;;4848297;29;20077;-76
2022/02/11 17:36:46;;;;;;;27.70;15.65;;;;;;;;;;4854593;29;20092;-76
2022/02/11 17:39:12;;;;;;;30.77;16.33;;;;;;;;;;4851327;29;20038;-75
2022/02/11 17:41:38;;;;;;;23.52;12.95;;;;;;;;;;4857555;29;20042;-76
2022/02/11 17:44:05;;;;;;;31.60;18.85;;;;;;;;;;4851684;29;20037;-75
2022/02/11 17:46:32;;;;;;;35.70;23.63;;;;;;;;;;4857226;29;20511;-75
2022/02/11 17:48:58;;;;;;;33.03;21.98;;;;;;;;;;4839406;29;20069;-75
2022/02/11 17:51:25;;;;;;;21.58;13.07;;;;;;;;;;4856216;29;20120;-76
2022/02/11 17:53:51;;;;;;;24.42;13.30;;;;;;;;;;4848656;29;20046;-76
2022/02/11 17:56:17;;;;;;;21.40;10.20;;;;;;;;;;4846220;29;20112;-76
2022/02/11 17:58:43;;;;;;;18.45;8.95;;;;;;;;;;4849497;29;20112;-76
2022/02/11 18:01:10;;;;;;;20.98;9.20;;;;;;;;;;4834793;29;20132;-75
2022/02/11 18:03:36;;;;;;;13.45;6.13;;;;;;;;;;4855770;29;20042;-76
2022/02/11 18:06:02;;;;;;;11.23;4.53;;;;;;;;;;4855560;29;20112;-76
2022/02/11 18:08:28;;;;;;;6.47;2.70;;;;;;;;;;4856390;29;20041;-76
2022/02/11 18:10:54;;;;;;;4.38;1.90;;;;;;;;;;4850189;29;20387;-75
2022/02/11 18:13:23;;;;;;;7.05;3.13;;;;;;;;;;4853734;29;20041;-76
2022/02/11 18:15:50;;;;;;;21.13;11.93;;;;;;;;;;4843041;29;20189;-75
2022/02/11 18:18:16;;;;;;;19.80;10.70;;;;;;;;;;4842216;29;20519;-75
2022/02/11 18:20:42;;;;;;;15.90;8.38;;;;;;;;;;4854120;29;20030;-76
2022/02/11 18:23:08;;;;;;;27.05;15.13;;;;;;;;;;4856649;29;20081;-75
2022/02/11 18:25:35;;;;;;;32.75;16.17;;;;;;;;;;4850335;29;20484;-75
2022/02/11 18:28:02;;;;;;;29.88;16.55;;;;;;;;;;4845495;29;20073;-76
2022/02/11 18:30:28;;;;;;;17.45;10.32;;;;;;;;;;4850386;29;20034;-76
2022/02/11 18:32:54;;;;;;;14.68;8.00;;;;;;;;;;4846899;29;20128;-75
2022/02/11 18:35:21;;;;;;;14.77;7.40;;;;;;;;;;4855158;29;20042;-75